createdAt,value
2023-03-29T00:01:43.040Z,4.38
2023-03-29T00:04:13.959Z,4.88
2023-03-29T00:06:42.040Z,5.60
2023-03-29T00:09:10.043Z,5.25
2023-03-29T00:11:37.033Z,4.78
2023-03-29T00:14:03.937Z,4.85
2023-03-29T00:16:31.173Z,5.90
2023-03-29T00:18:58.497Z,5.82
2023-03-29T00:21:25.586Z,5.85
2023-03-29T00:23:52.398Z,5.90
2023-03-29T00:26:19.279Z,6.68
2023-03-29T00:28:46.152Z,7.32
2023-03-29T00:31:14.179Z,6.13
2023-03-29T00:33:43.893Z,6.25
2023-03-29T00:36:11.408Z,5.60
2023-03-29T00:38:38.809Z,6.13
2023-03-29T00:41:06.973Z,5.93
2023-03-29T00:43:52.044Z,6.50
2023-03-29T00:46:19.050Z,6.40
2023-03-29T00:48:46.628Z,5.95
2023-03-29T00:51:14.493Z,6.53
2023-03-29T00:53:45.834Z,6.00
2023-03-29T00:56:14.322Z,6.18
2023-03-29T00:58:44.237Z,6.45
2023-03-29T01:01:13.845Z,6.05
2023-03-29T01:03:46.766Z,6.88
2023-03-29T01:06:15.626Z,6.93
2023-03-29T01:08:50.259Z,6.50
2023-03-29T01:11:20.431Z,6.93
2023-03-29T01:13:51.554Z,6.10
2023-03-29T01:16:19.937Z,6.22
2023-03-29T01:18:49.777Z,6.53
2023-03-29T01:21:25.315Z,6.45
2023-03-29T01:23:58.333Z,6.30
2023-03-29T01:26:32.716Z,6.00
2023-03-29T01:29:02.664Z,6.35
2023-03-29T01:31:31.235Z,6.03
2023-03-29T01:34:04.044Z,6.20
2023-03-29T01:36:38.666Z,6.47
2023-03-29T01:39:07.255Z,6.10
2023-03-29T01:41:34.096Z,6.18
2023-03-29T01:44:12.116Z,5.93
2023-03-29T01:46:38.970Z,5.97
2023-03-29T01:49:14.161Z,6.60
2023-03-29T01:51:44.189Z,6.18
2023-03-29T01:54:26.393Z,6.32
2023-03-29T01:56:57.112Z,6.32
2023-03-29T01:59:26.585Z,6.60
2023-03-29T02:01:56.915Z,6.93
2023-03-29T02:04:29.230Z,6.28
2023-03-29T02:06:57.787Z,5.88
2023-03-29T02:09:24.630Z,6.38
2023-03-29T02:11:52.299Z,5.65
2023-03-29T02:14:19.445Z,6.53
2023-03-29T02:16:46.430Z,5.78
2023-03-29T02:19:13.509Z,6.43
2023-03-29T02:22:02.050Z,6.13
2023-03-29T02:24:32.305Z,6.35
2023-03-29T02:26:59.693Z,6.40
2023-03-29T02:29:28.537Z,6.50
2023-03-29T02:31:58.766Z,6.57
2023-03-29T02:34:28.326Z,6.50
2023-03-29T02:37:00.119Z,5.90
2023-03-29T02:39:27.960Z,6.40
2023-03-29T02:41:55.624Z,6.00
2023-03-29T02:44:27.715Z,5.32
2023-03-29T02:47:00.078Z,6.25
2023-03-29T02:49:27.110Z,5.63
2023-03-29T02:51:56.131Z,6.07
2023-03-29T02:54:25.960Z,5.80
2023-03-29T02:56:57.307Z,6.05
2023-03-29T02:59:24.348Z,5.90
2023-03-29T03:01:52.847Z,6.07
2023-03-29T03:04:22.849Z,6.35
2023-03-29T03:06:49.684Z,6.20
2023-03-29T03:09:16.936Z,6.57
2023-03-29T03:11:43.798Z,5.97
2023-03-29T03:14:10.941Z,5.85
2023-03-29T03:16:37.895Z,6.22
2023-03-29T03:19:04.729Z,6.07
2023-03-29T03:21:31.646Z,5.90
2023-03-29T03:23:58.619Z,5.85
2023-03-29T03:26:25.466Z,6.47
2023-03-29T03:28:52.233Z,5.53
2023-03-29T03:31:19.808Z,5.95
2023-03-29T03:33:46.706Z,5.15
2023-03-29T03:36:14.090Z,5.28
2023-03-29T03:38:41.446Z,5.35
2023-03-29T03:41:09.103Z,5.13
2023-03-29T03:43:36.437Z,4.95
2023-03-29T03:46:03.411Z,5.60
2023-03-29T03:48:30.454Z,6.15
2023-03-29T03:50:58.428Z,5.85
2023-03-29T03:53:26.273Z,5.57
2023-03-29T03:55:54.357Z,5.55
2023-03-29T03:58:21.668Z,5.88
2023-03-29T04:00:50.200Z,5.57
2023-03-29T04:03:17.928Z,4.75
2023-03-29T04:05:45.554Z,4.88
2023-03-29T04:08:13.098Z,5.75
2023-03-29T04:10:40.076Z,4.63
2023-03-29T04:13:07.124Z,5.53
2023-03-29T04:15:38.401Z,5.03
2023-03-29T04:18:09.613Z,4.80
2023-03-29T04:20:36.981Z,3.50
2023-03-29T04:23:04.025Z,3.22
2023-03-29T04:25:30.845Z,2.78
2023-03-29T04:27:57.673Z,2.33
2023-03-29T04:30:24.510Z,2.20
2023-03-29T04:32:51.317Z,2.13
2023-03-29T04:35:18.229Z,2.40
2023-03-29T04:37:45.176Z,2.13
2023-03-29T04:40:14.452Z,2.25
2023-03-29T04:42:45.912Z,2.13
2023-03-29T04:45:18.086Z,2.30
2023-03-29T04:47:45.875Z,2.17
2023-03-29T04:50:13.902Z,2.13
2023-03-29T04:52:40.960Z,1.95
2023-03-29T04:55:08.531Z,2.15
2023-03-29T04:57:35.910Z,1.92
2023-03-29T05:00:08.371Z,2.13
2023-03-29T05:02:35.264Z,2.25
2023-03-29T05:05:02.180Z,1.90
2023-03-29T05:07:29.824Z,1.92
2023-03-29T05:09:57.014Z,2.42
2023-03-29T05:12:23.801Z,2.58
2023-03-29T05:14:50.569Z,2.00
2023-03-29T05:17:17.382Z,1.73
2023-03-29T05:19:44.331Z,1.90
2023-03-29T05:22:11.132Z,2.20
2023-03-29T05:24:37.981Z,1.85
2023-03-29T05:27:05.118Z,2.50
2023-03-29T05:29:32.896Z,2.25
2023-03-29T05:31:59.880Z,2.08
2023-03-29T05:34:26.884Z,2.15
2023-03-29T05:36:53.651Z,2.17
2023-03-29T05:39:21.213Z,1.73
2023-03-29T05:41:48.022Z,2.28
2023-03-29T05:44:14.826Z,1.92
2023-03-29T05:46:41.962Z,1.70
2023-03-29T05:49:08.778Z,1.88
2023-03-29T05:51:35.627Z,1.85
2023-03-29T05:54:02.563Z,2.08
2023-03-29T05:56:29.434Z,1.65
2023-03-29T05:58:59.241Z,2.22
2023-03-29T06:01:26.079Z,1.70
2023-03-29T06:03:53.634Z,1.85
2023-03-29T06:06:21.450Z,1.98
2023-03-29T06:08:48.357Z,1.80
2023-03-29T06:11:15.969Z,1.65
2023-03-29T06:13:42.862Z,1.83
2023-03-29T06:16:10.621Z,2.05
2023-03-29T06:18:40.313Z,2.13
2023-03-29T06:21:09.325Z,1.90
2023-03-29T06:23:37.023Z,1.75
2023-03-29T06:26:05.760Z,2.15
2023-03-29T06:28:33.018Z,1.70
2023-03-29T06:31:02.880Z,1.83
2023-03-29T06:33:32.495Z,1.90
2023-03-29T06:35:59.397Z,1.80
2023-03-29T06:38:30.490Z,2.25
2023-03-29T06:41:02.582Z,2.10
2023-03-29T06:43:29.843Z,3.00
2023-03-29T06:45:56.728Z,2.10
2023-03-29T06:48:23.611Z,2.50
2023-03-29T06:50:50.819Z,2.53
2023-03-29T06:53:17.647Z,2.63
2023-03-29T06:55:44.439Z,2.45
2023-03-29T06:58:11.385Z,2.25
2023-03-29T07:00:39.405Z,3.05
2023-03-29T07:03:08.252Z,2.72
2023-03-29T07:05:36.654Z,2.65
2023-03-29T07:08:06.171Z,2.85
2023-03-29T07:10:38.180Z,2.70
2023-03-29T07:13:08.875Z,2.50
2023-03-29T07:15:36.142Z,2.53
2023-03-29T07:18:04.906Z,2.53
2023-03-29T07:20:32.321Z,2.28
2023-03-29T07:22:59.607Z,2.53
2023-03-29T07:25:27.682Z,2.72
2023-03-29T07:27:54.586Z,2.30
2023-03-29T07:30:23.587Z,2.22
2023-03-29T07:32:51.211Z,2.35
2023-03-29T07:35:18.510Z,2.38
2023-03-29T07:37:46.402Z,2.40
2023-03-29T07:40:16.338Z,2.33
2023-03-29T07:42:44.070Z,2.67
2023-03-29T07:45:11.380Z,2.58
2023-03-29T07:47:38.483Z,2.83
2023-03-29T07:50:07.448Z,2.60
2023-03-29T07:52:34.556Z,2.50
2023-03-29T07:55:01.580Z,2.88
2023-03-29T07:57:28.514Z,2.97
2023-03-29T07:59:55.588Z,2.83
2023-03-29T08:02:22.584Z,3.97
2023-03-29T08:04:49.756Z,2.95
2023-03-29T08:07:19.312Z,2.60
2023-03-29T08:09:46.217Z,2.30
2023-03-29T08:12:13.244Z,2.60
2023-03-29T08:14:40.275Z,2.60
2023-03-29T08:17:07.224Z,2.83
2023-03-29T08:19:34.207Z,2.60
2023-03-29T08:22:01.178Z,2.10
2023-03-29T08:24:28.202Z,2.10
2023-03-29T08:26:55.061Z,2.20
2023-03-29T08:29:24.892Z,1.70
2023-03-29T08:31:51.808Z,1.45
2023-03-29T08:34:18.841Z,1.92
2023-03-29T08:36:45.835Z,1.85
2023-03-29T08:39:12.668Z,1.77
2023-03-29T08:41:58.387Z,1.95
2023-03-29T08:44:31.271Z,1.98
2023-03-29T08:47:27.743Z,2.10
2023-03-29T08:52:28.859Z,2.03
2023-03-29T08:54:56.097Z,2.30
2023-03-29T08:57:27.211Z,1.92
2023-03-29T08:59:55.520Z,2.13
2023-03-29T09:02:24.822Z,2.20
2023-03-29T09:04:53.063Z,2.47
2023-03-29T09:07:19.940Z,2.20
2023-03-29T09:09:46.834Z,1.90
2023-03-29T09:12:16.768Z,2.20
2023-03-29T09:14:49.926Z,2.40
2023-03-29T09:17:16.807Z,2.17
2023-03-29T09:19:56.767Z,2.03
2023-03-29T09:22:44.048Z,2.38
2023-03-29T09:25:14.170Z,2.15
2023-03-29T09:27:43.996Z,2.08
2023-03-29T09:30:25.960Z,2.00
2023-03-29T09:32:54.053Z,2.47
2023-03-29T09:35:32.083Z,2.15
2023-03-29T09:37:59.071Z,2.47
2023-03-29T09:40:39.486Z,2.20
2023-03-29T09:43:09.353Z,2.10
2023-03-29T09:45:40.191Z,2.13
2023-03-29T09:48:11.283Z,2.40
2023-03-29T09:50:40.847Z,2.13
2023-03-29T09:53:08.209Z,2.40
2023-03-29T09:55:37.182Z,2.38
2023-03-29T09:58:18.202Z,2.55
2023-03-29T10:00:45.574Z,3.03
2023-03-29T10:03:21.972Z,2.67
2023-03-29T10:05:50.042Z,2.47
2023-03-29T10:08:22.469Z,2.95
2023-03-29T10:10:49.688Z,2.92
2023-03-29T10:13:26.686Z,2.97
2023-03-29T10:16:07.549Z,3.20
2023-03-29T10:18:43.784Z,2.45
2023-03-29T10:21:15.762Z,3.20
2023-03-29T10:23:43.020Z,2.80
2023-03-29T10:26:30.112Z,2.53
2023-03-29T10:29:00.425Z,3.03
2023-03-29T10:31:29.523Z,3.00
2023-03-29T10:33:57.558Z,3.60
2023-03-29T10:36:26.746Z,3.33
2023-03-29T10:38:54.679Z,3.03
2023-03-29T10:41:23.134Z,2.97
2023-03-29T10:43:51.227Z,2.88
2023-03-29T10:46:22.913Z,2.95
2023-03-29T10:48:57.783Z,3.10
2023-03-29T10:51:27.792Z,3.38
2023-03-29T10:53:56.300Z,3.33
2023-03-29T10:56:43.115Z,3.90
2023-03-29T10:59:19.028Z,3.45
2023-03-29T11:01:54.969Z,4.07
2023-03-29T11:04:24.552Z,3.97
2023-03-29T11:07:10.912Z,3.58
2023-03-29T11:09:37.789Z,3.50
2023-03-29T11:12:20.914Z,3.35
2023-03-29T11:14:56.995Z,3.45
2023-03-29T11:17:30.705Z,3.80
2023-03-29T11:19:57.672Z,3.00
2023-03-29T11:22:49.289Z,3.15
2023-03-29T11:25:42.528Z,2.88
2023-03-29T11:28:09.704Z,3.50
2023-03-29T11:30:42.984Z,2.80
2023-03-29T11:33:24.386Z,3.40
2023-03-29T11:35:57.283Z,2.95
2023-03-29T11:38:45.204Z,3.30
2023-03-29T11:41:19.800Z,2.75
2023-03-29T11:44:00.957Z,2.50
2023-03-29T11:46:27.805Z,2.85
2023-03-29T11:49:06.981Z,2.90
2023-03-29T11:51:41.328Z,2.38
2023-03-29T11:54:14.170Z,2.60
2023-03-29T11:56:54.397Z,2.15
2023-03-29T11:59:24.759Z,2.38
2023-03-29T12:01:56.593Z,2.20
2023-03-29T12:04:30.226Z,2.38
2023-03-29T12:07:06.349Z,2.25
2023-03-29T12:09:34.218Z,2.20
2023-03-29T12:12:10.772Z,2.33
2023-03-29T12:14:46.680Z,2.10
2023-03-29T12:17:17.087Z,2.28
2023-03-29T12:19:50.474Z,2.05
2023-03-29T12:22:17.259Z,2.40
2023-03-29T12:24:45.890Z,2.25
2023-03-29T12:27:20.906Z,2.10
2023-03-29T12:30:08.045Z,2.33
2023-03-29T12:32:35.090Z,2.47
2023-03-29T12:35:05.275Z,2.50
2023-03-29T12:37:47.311Z,2.60
2023-03-29T12:40:15.619Z,2.67
2023-03-29T12:42:46.716Z,2.58
2023-03-29T12:45:19.371Z,2.33
2023-03-29T12:47:47.392Z,2.42
2023-03-29T12:50:37.656Z,2.55
2023-03-29T12:55:33.298Z,2.28
2023-03-29T12:58:03.223Z,3.00
2023-03-29T13:00:36.254Z,2.78
2023-03-29T13:03:06.402Z,3.10
2023-03-29T13:05:34.469Z,2.70
2023-03-29T13:08:11.565Z,3.13
2023-03-29T13:10:42.373Z,2.67
2023-03-29T13:13:14.695Z,2.30
2023-03-29T13:15:43.063Z,2.55
2023-03-29T13:18:11.820Z,2.70
2023-03-29T13:20:46.538Z,2.75
2023-03-29T13:23:22.324Z,2.50
2023-03-29T13:25:49.173Z,2.38
2023-03-29T13:28:15.968Z,2.63
2023-03-29T13:30:45.768Z,2.20
2023-03-29T13:33:16.120Z,2.47
2023-03-29T13:35:53.714Z,3.00
2023-03-29T13:38:31.850Z,2.25
2023-03-29T13:40:59.208Z,2.40
2023-03-29T13:43:52.072Z,2.45
2023-03-29T13:46:21.295Z,2.35
2023-03-29T13:48:51.175Z,2.05
2023-03-29T13:51:18.224Z,2.00
2023-03-29T13:54:01.158Z,2.17
2023-03-29T13:57:00.559Z,2.28
2023-03-29T13:59:47.762Z,2.25
2023-03-29T14:02:38.710Z,2.40
2023-03-29T14:05:07.004Z,2.60
2023-03-29T14:07:36.577Z,2.30
2023-03-29T14:10:03.953Z,1.90
2023-03-29T14:12:33.504Z,2.00
2023-03-29T14:15:01.492Z,2.50
2023-03-29T14:17:29.114Z,2.13
2023-03-29T14:19:58.201Z,2.28
2023-03-29T14:22:29.448Z,2.70
2023-03-29T14:24:57.030Z,2.03
2023-03-29T14:27:23.818Z,1.90
2023-03-29T14:29:51.427Z,2.38
2023-03-29T14:32:19.796Z,2.20
2023-03-29T14:34:50.274Z,1.80
2023-03-29T14:37:27.587Z,2.20
2023-03-29T14:39:55.025Z,1.90
2023-03-29T14:42:26.742Z,1.90
2023-03-29T14:45:04.222Z,2.13
2023-03-29T14:47:31.950Z,1.90
2023-03-29T14:50:01.010Z,1.92
2023-03-29T14:52:28.897Z,2.00
2023-03-29T14:54:59.452Z,1.90
2023-03-29T14:57:28.553Z,2.22
2023-03-29T14:59:59.422Z,2.03
2023-03-29T15:02:26.572Z,2.17
2023-03-29T15:04:57.712Z,2.10
2023-03-29T15:07:25.842Z,2.08
2023-03-29T15:09:53.438Z,1.80
2023-03-29T15:12:20.519Z,2.20
2023-03-29T15:14:49.084Z,2.05
2023-03-29T15:17:39.129Z,2.25
2023-03-29T15:20:15.851Z,2.10
2023-03-29T15:23:12.028Z,2.30
2023-03-29T15:25:46.138Z,2.08
2023-03-29T15:28:28.311Z,2.45
2023-03-29T15:33:34.283Z,2.20
2023-03-29T15:36:02.554Z,2.08
2023-03-29T15:38:40.405Z,2.03
2023-03-29T15:41:10.721Z,2.30
2023-03-29T15:43:37.604Z,2.50
2023-03-29T15:46:05.099Z,2.30
2023-03-29T15:48:33.874Z,1.92
2023-03-29T15:51:04.835Z,2.00
2023-03-29T15:53:33.246Z,1.83
2023-03-29T15:56:01.269Z,2.13
2023-03-29T15:58:30.060Z,1.90
2023-03-29T16:00:59.271Z,2.22
2023-03-29T16:03:27.439Z,2.40
2023-03-29T16:05:56.891Z,2.17
2023-03-29T16:08:24.755Z,1.90
2023-03-29T16:10:51.674Z,1.92
2023-03-29T16:13:18.638Z,2.60
2023-03-29T16:15:45.940Z,2.08
2023-03-29T16:18:12.774Z,1.95
2023-03-29T16:20:39.600Z,2.15
2023-03-29T16:23:09.459Z,2.30
2023-03-29T16:25:37.628Z,2.20
2023-03-29T16:28:05.654Z,2.20
2023-03-29T16:30:32.976Z,2.42
2023-03-29T16:33:00.018Z,2.25
2023-03-29T16:35:28.508Z,2.20
2023-03-29T16:37:55.500Z,2.47
2023-03-29T16:40:23.837Z,2.25
2023-03-29T16:42:51.414Z,2.50
2023-03-29T16:45:18.620Z,2.50
2023-03-29T16:47:45.695Z,2.33
2023-03-29T16:50:13.542Z,2.78
2023-03-29T16:52:40.635Z,2.10
2023-03-29T16:55:08.769Z,2.42
2023-03-29T16:57:35.898Z,2.20
2023-03-29T17:00:05.501Z,2.50
2023-03-29T17:02:32.635Z,2.30
2023-03-29T17:04:59.474Z,2.38
2023-03-29T17:07:26.392Z,2.28
2023-03-29T17:09:53.286Z,2.20
2023-03-29T17:12:21.272Z,2.38
2023-03-29T17:14:48.725Z,2.30
2023-03-29T17:17:16.048Z,2.15
2023-03-29T17:19:42.870Z,2.05
2023-03-29T17:22:09.806Z,2.30
2023-03-29T17:24:36.600Z,2.10
2023-03-29T17:27:03.404Z,2.35
2023-03-29T17:29:30.276Z,2.50
2023-03-29T17:31:57.091Z,2.50
2023-03-29T17:34:24.023Z,2.70
2023-03-29T17:36:53.447Z,2.47
2023-03-29T17:39:20.330Z,2.15
2023-03-29T17:41:47.301Z,2.75
2023-03-29T17:44:14.331Z,3.05
2023-03-29T17:46:41.225Z,2.40
2023-03-29T17:49:08.060Z,2.67
2023-03-29T17:51:34.897Z,2.70
2023-03-29T17:54:02.333Z,2.20
2023-03-29T17:56:29.179Z,2.42
2023-03-29T17:58:56.232Z,2.90
2023-03-29T18:01:23.243Z,2.70
2023-03-29T18:03:50.463Z,2.15
2023-03-29T18:06:19.567Z,2.95
2023-03-29T18:08:46.724Z,2.53
2023-03-29T18:11:22.248Z,2.47
2023-03-29T18:13:50.010Z,2.88
2023-03-29T18:16:17.186Z,2.60
2023-03-29T18:18:46.324Z,2.45
2023-03-29T18:21:14.109Z,2.45
2023-03-29T18:23:43.796Z,2.75
2023-03-29T18:26:11.612Z,2.63
2023-03-29T18:28:38.432Z,2.25
2023-03-29T18:31:06.022Z,2.50
2023-03-29T18:33:36.368Z,1.73
2023-03-29T18:36:04.889Z,2.03
2023-03-29T18:38:35.328Z,1.70
2023-03-29T18:41:03.029Z,1.60
2023-03-29T18:43:30.440Z,1.83
2023-03-29T18:45:57.456Z,1.50
2023-03-29T18:48:24.644Z,1.50
2023-03-29T18:50:52.197Z,1.30
2023-03-29T18:53:19.586Z,1.13
2023-03-29T18:55:46.675Z,1.10
2023-03-29T18:58:14.009Z,1.30
2023-03-29T19:00:41.727Z,1.48
2023-03-29T19:03:08.855Z,1.40
2023-03-29T19:05:39.338Z,1.40
2023-03-29T19:08:07.074Z,1.40
2023-03-29T19:10:37.692Z,1.02
2023-03-29T19:13:04.908Z,1.20
2023-03-29T19:15:32.467Z,1.05
2023-03-29T19:17:59.350Z,1.20
2023-03-29T19:20:26.648Z,1.30
2023-03-29T19:22:53.672Z,1.25
2023-03-29T19:25:20.728Z,1.20
2023-03-29T19:27:47.878Z,1.20
2023-03-29T19:30:14.926Z,1.67
2023-03-29T19:32:41.872Z,1.42
2023-03-29T19:35:09.693Z,1.52
2023-03-29T19:37:36.582Z,1.30
2023-03-29T19:40:06.567Z,2.05
2023-03-29T19:42:35.914Z,1.92
2023-03-29T19:45:03.948Z,1.67
2023-03-29T19:47:31.210Z,2.00
2023-03-29T19:49:58.593Z,2.25
2023-03-29T19:52:28.045Z,1.83
2023-03-29T19:54:55.933Z,1.83
2023-03-29T19:57:23.945Z,2.50
2023-03-29T19:59:53.084Z,1.90
2023-03-29T20:02:19.979Z,2.20
2023-03-29T20:04:46.808Z,2.10
2023-03-29T20:07:13.739Z,2.47
2023-03-29T20:09:44.615Z,2.22
2023-03-29T20:14:40.421Z,2.50
2023-03-29T20:17:07.892Z,2.42
2023-03-29T20:19:36.753Z,2.70
2023-03-29T20:22:04.256Z,3.30
2023-03-29T20:24:32.738Z,3.20
2023-03-29T20:26:59.726Z,2.90
2023-03-29T20:29:27.355Z,3.30
2023-03-29T20:31:54.264Z,3.10
2023-03-29T20:34:21.196Z,2.95
2023-03-29T20:36:48.357Z,2.67
2023-03-29T20:39:18.924Z,2.90
2023-03-29T20:41:47.878Z,2.60
2023-03-29T20:44:16.865Z,2.83
2023-03-29T20:47:03.450Z,2.58
2023-03-29T20:49:37.161Z,2.90
2023-03-29T20:52:06.070Z,2.75
2023-03-29T20:54:33.316Z,3.00
2023-03-29T20:57:00.356Z,3.33
2023-03-29T20:59:27.852Z,3.58
2023-03-29T21:01:54.698Z,3.22
2023-03-29T21:04:21.552Z,3.05
2023-03-29T21:06:50.489Z,3.25
2023-03-29T21:09:19.205Z,2.90
2023-03-29T21:11:46.068Z,3.25
2023-03-29T21:14:14.274Z,2.80
2023-03-29T21:16:42.483Z,2.95
2023-03-29T21:19:10.030Z,2.45
2023-03-29T21:21:36.970Z,2.83
2023-03-29T21:24:04.044Z,2.85
2023-03-29T21:26:31.049Z,2.40
2023-03-29T21:28:57.908Z,2.38
2023-03-29T21:31:24.942Z,2.67
2023-03-29T21:33:53.238Z,2.60
2023-03-29T21:36:20.157Z,2.83
2023-03-29T21:38:47.064Z,2.35
2023-03-29T21:41:14.251Z,2.17
2023-03-29T21:43:41.097Z,2.60
2023-03-29T21:46:08.146Z,3.25
2023-03-29T21:48:35.349Z,3.00
2023-03-29T21:51:02.597Z,2.90
2023-03-29T21:53:29.548Z,2.78
2023-03-29T21:55:56.407Z,2.67
2023-03-29T21:58:23.341Z,3.28
2023-03-29T22:00:50.198Z,3.60
2023-03-29T22:03:17.276Z,3.28
2023-03-29T22:05:54.760Z,2.88
2023-03-29T22:08:26.157Z,2.80
2023-03-29T22:10:56.937Z,3.42
2023-03-29T22:13:24.971Z,3.30
2023-03-29T22:15:56.102Z,3.08
2023-03-29T22:18:23.711Z,3.42
2023-03-29T22:20:50.652Z,3.50
2023-03-29T22:23:17.558Z,2.85
2023-03-29T22:25:44.358Z,3.53
2023-03-29T22:28:11.180Z,3.03
2023-03-29T22:30:38.055Z,3.20
2023-03-29T22:33:05.088Z,3.63
2023-03-29T22:35:33.638Z,3.08
2023-03-29T22:38:00.963Z,2.72
2023-03-29T22:40:28.378Z,2.97
2023-03-29T22:42:55.170Z,2.60
2023-03-29T22:45:21.990Z,3.05
2023-03-29T22:47:48.867Z,2.90
2023-03-29T22:50:15.780Z,2.80
2023-03-29T22:52:42.601Z,3.10
2023-03-29T22:55:09.477Z,2.75
2023-03-29T22:57:36.355Z,2.80
2023-03-29T23:00:07.002Z,2.95
2023-03-29T23:02:36.926Z,2.30
2023-03-29T23:05:04.211Z,2.83
2023-03-29T23:07:31.068Z,2.47
2023-03-29T23:09:57.966Z,2.63
2023-03-29T23:12:24.826Z,1.80
2023-03-29T23:14:53.138Z,2.35
2023-03-29T23:17:20.562Z,2.70
2023-03-29T23:19:47.960Z,2.47
2023-03-29T23:22:14.827Z,2.55
2023-03-29T23:24:43.672Z,2.30
2023-03-29T23:27:10.487Z,3.08
2023-03-29T23:29:38.555Z,2.40
2023-03-29T23:32:05.867Z,1.95
2023-03-29T23:34:33.192Z,2.80
2023-03-29T23:37:00.393Z,2.30
2023-03-29T23:39:27.266Z,2.33
2023-03-29T23:41:54.079Z,2.40
2023-03-29T23:44:20.878Z,2.47
2023-03-29T23:46:47.813Z,2.70
2023-03-29T23:49:14.746Z,3.20
2023-03-29T23:51:42.753Z,2.38
2023-03-29T23:54:09.617Z,2.10
2023-03-29T23:56:36.670Z,2.47
2023-03-29T23:59:04.611Z,2.78
